Kanesville, Utah
Current Conditions -  °F | °C
As of 5:53 PM on Saturday 22 Nov 2014 (Local Time) from KOGD Reporting Station
Overcast Overcast  
Wind Chill: -1°   Ceiling: 10000
Heat Index:   Visibility: 10mi
Dew Point:   Wind: 10mph
Humidity: 93%   Direction: 180°S
Pressure: 29.8"   Gusts: NA
Location:  41.1783°N, 112.12°W
Report Text: KOGD 230053Z AUTO 18009KT 10SM OVC100 03/02 A2980 RMK AO2 RAE05 SLP081 P0000 T00330022 TSNO
Loading
Personal Weather Stations






























Interactive Weather Map New forecast layout! Learn more

10-Day Weather Forecast

Advertisements
Track Severe Weather on mobile